createdAt,value
2018-10-19T00:00:48.416Z,58.8
2018-10-19T00:05:56.759Z,59.4
2018-10-19T00:11:05.028Z,59.4
2018-10-19T00:16:13.277Z,59.9
2018-10-19T00:21:21.599Z,59.5
2018-10-19T00:26:29.765Z,59.9
2018-10-19T00:31:38.016Z,60.1
2018-10-19T00:36:46.438Z,60.1
2018-10-19T00:41:54.823Z,60.4
2018-10-19T00:47:02.989Z,60.4
2018-10-19T00:57:19.488Z,60.4
2018-10-19T01:02:27.907Z,60.4
2018-10-19T01:07:36.193Z,60
2018-10-19T01:12:44.409Z,59.8
2018-10-19T01:23:01.128Z,59.9
2018-10-19T01:28:09.443Z,59.9
2018-10-19T01:33:17.721Z,59.8
2018-10-19T01:38:26.152Z,60.6
2018-10-19T01:48:42.807Z,61.5
2018-10-19T01:53:54.139Z,61.9
2018-10-19T01:58:59.625Z,61.8
2018-10-19T02:04:08.002Z,62
2018-10-19T02:09:16.308Z,62.6
2018-10-19T02:14:24.759Z,61.8
2018-10-19T02:19:33.179Z,61.7
2018-10-19T02:24:41.628Z,61.8
2018-10-19T02:29:49.844Z,61.8
2018-10-19T02:40:08.887Z,61.7
2018-10-19T02:45:15.827Z,61.5
2018-10-19T02:50:23.399Z,61.6
2018-10-19T02:55:31.906Z,62.2
2018-10-19T03:00:40.224Z,62.2
2018-10-19T03:05:48.704Z,62.3
2018-10-19T03:10:57.080Z,62.6
2018-10-19T03:16:05.352Z,62.7
2018-10-19T03:21:13.732Z,62.9
2018-10-19T03:31:30.596Z,62
2018-10-19T03:36:38.993Z,62.1
2018-10-19T03:41:47.360Z,61.7
2018-10-19T03:46:55.713Z,61.3
2018-10-19T03:52:04.079Z,61.7
2018-10-19T03:57:12.953Z,60.7
2018-10-19T04:02:20.825Z,60.7
2018-10-19T04:07:29.115Z,60.8
2018-10-19T04:12:37.575Z,61.8
2018-10-19T04:33:11.088Z,60.5
2018-10-19T04:38:19.462Z,59.9
2018-10-19T04:43:27.791Z,60.2
2018-10-19T04:48:36.074Z,59.4
2018-10-19T04:53:44.416Z,59.4
2018-10-19T04:58:53.828Z,59.2
2018-10-19T05:04:01.222Z,59.1
2018-10-19T05:09:09.451Z,59
2018-10-19T05:14:17.811Z,58.4
2018-10-19T05:19:26.211Z,58
2018-10-19T05:24:34.577Z,59
2018-10-19T05:29:42.871Z,59.2
2018-10-19T05:34:51.229Z,59.5
2018-10-19T05:39:59.637Z,59.6
2018-10-19T05:50:16.378Z,59.4
2018-10-19T05:55:24.645Z,59
2018-10-19T06:15:58.028Z,58.2
2018-10-19T06:21:06.394Z,59.2
2018-10-19T06:26:15.341Z,58.1
2018-10-19T06:31:23.100Z,57.9
2018-10-19T06:36:31.459Z,58.6
2018-10-19T06:41:39.789Z,58.3
2018-10-19T07:02:13.079Z,58
2018-10-19T07:12:29.668Z,58.2
2018-10-19T07:17:37.963Z,58.1
2018-10-19T07:22:46.177Z,57.9
2018-10-19T07:27:54.436Z,57.8
2018-10-19T07:33:02.739Z,56.7
2018-10-19T07:38:10.979Z,56.2
2018-10-19T07:48:27.301Z,55.5
2018-10-19T07:53:35.491Z,54.9
2018-10-19T07:58:43.574Z,54.6
2018-10-19T08:03:51.769Z,52.8
2018-10-19T08:08:59.848Z,50.6
2018-10-19T08:14:07.877Z,50
2018-10-19T08:19:15.859Z,51.7
2018-10-19T08:24:23.769Z,49.3
2018-10-19T08:29:31.560Z,46.6
2018-10-19T08:34:39.395Z,45.6
2018-10-19T08:39:47.253Z,46.7
2018-10-19T08:44:55.096Z,45.3
2018-10-19T08:50:02.787Z,44.6
2018-10-19T08:55:10.373Z,44.5
2018-10-19T09:00:18.111Z,43.2
2018-10-19T09:05:25.613Z,42
2018-10-19T09:10:33.112Z,41
2018-10-19T09:15:40.416Z,40.4
2018-10-19T09:20:47.782Z,38.7
2018-10-19T09:31:02.393Z,37
2018-10-19T09:41:16.629Z,35.3
2018-10-19T09:46:23.736Z,34.7
2018-10-19T09:56:37.907Z,33
2018-10-19T10:06:51.820Z,32.7
2018-10-19T10:11:58.850Z,32.8
2018-10-19T10:17:05.688Z,32.5
2018-10-19T10:22:12.700Z,31.6
2018-10-19T10:27:19.634Z,29.7
2018-10-19T10:32:26.503Z,32.2
2018-10-19T10:37:33.461Z,32
2018-10-19T10:42:40.286Z,31.6
2018-10-19T10:47:47.305Z,32.5
2018-10-19T10:52:54.314Z,33.4
2018-10-19T10:58:01.297Z,32.4
2018-10-19T11:03:08.330Z,32.9
2018-10-19T11:18:29.267Z,32.8
2018-10-19T11:23:36.118Z,32
2018-10-19T11:28:43.006Z,32.9
2018-10-19T11:33:50.000Z,31.9
2018-10-19T11:38:56.688Z,32
2018-10-19T11:44:03.579Z,31.6
2018-10-19T11:49:10.442Z,31.9
2018-10-19T11:54:17.152Z,31.2
2018-10-19T11:59:24.037Z,28.8
2018-10-19T12:04:30.826Z,30.7
2018-10-19T12:09:37.622Z,31.2
2018-10-19T12:19:51.210Z,30
2018-10-19T12:24:57.942Z,31
2018-10-19T12:30:04.824Z,31.3
2018-10-19T12:40:18.508Z,31.8
2018-10-19T12:45:25.243Z,30.7
2018-10-19T12:55:39.075Z,31.5
2018-10-19T13:10:59.369Z,31.6
2018-10-19T13:16:06.248Z,33
2018-10-19T13:21:13.258Z,32.9
2018-10-19T13:26:20.092Z,33.1
2018-10-19T13:31:26.980Z,33.9
2018-10-19T13:36:34.052Z,33.5
2018-10-19T13:46:48.164Z,34.5
2018-10-19T13:51:55.304Z,33.1
2018-10-19T14:02:09.692Z,33.6
2018-10-19T14:07:16.890Z,32.8
2018-10-19T14:12:24.222Z,32.8
2018-10-19T14:17:31.572Z,33.1
2018-10-19T14:22:38.876Z,33.3
2018-10-19T14:27:46.247Z,33.3
2018-10-19T14:38:01.048Z,34.2
2018-10-19T14:43:08.521Z,33.6
2018-10-19T14:48:15.891Z,33.5
2018-10-19T14:53:23.385Z,34
2018-10-19T15:03:38.477Z,34.4
2018-10-19T15:08:46.008Z,34.9
2018-10-19T15:13:53.660Z,35.6
2018-10-19T15:19:01.157Z,36
2018-10-19T15:24:08.732Z,36.7
2018-10-19T15:29:16.465Z,37.1
2018-10-19T15:34:23.990Z,37.2
2018-10-19T15:44:39.288Z,37.7
2018-10-19T15:49:46.917Z,38.1
2018-10-19T15:54:54.635Z,38.2
2018-10-19T16:00:02.374Z,37.7
2018-10-19T16:05:09.991Z,38.4
2018-10-19T16:10:17.779Z,37.9
2018-10-19T16:15:25.549Z,39.1
2018-10-19T16:20:33.303Z,39.1
2018-10-19T16:30:48.739Z,39.6
2018-10-19T16:35:56.612Z,40.7
2018-10-19T16:46:12.180Z,40.5
2018-10-19T16:51:20.042Z,40.4
2018-10-19T16:56:27.873Z,41
2018-10-19T17:01:35.731Z,40.2
2018-10-19T17:06:43.608Z,41.6
2018-10-19T17:11:51.424Z,41.5
2018-10-19T17:16:59.393Z,41.7
2018-10-19T17:22:07.300Z,41.9
2018-10-19T17:27:15.158Z,41.8
2018-10-19T17:32:23.154Z,42.1
2018-10-19T17:37:31.196Z,42.6
2018-10-19T17:42:39.072Z,42.9
2018-10-19T17:47:47.008Z,43.4
2018-10-19T17:52:55.103Z,43.7
2018-10-19T18:08:18.854Z,44.2
2018-10-19T18:13:26.921Z,44.1
2018-10-19T18:18:35.301Z,44.5
2018-10-19T18:23:42.904Z,44.7
2018-10-19T18:28:53.849Z,44.8
2018-10-19T18:34:00.957Z,45.2
2018-10-19T18:39:07.060Z,45.2
2018-10-19T18:44:15.068Z,45.4
2018-10-19T18:54:31.262Z,45.3
2018-10-19T18:59:39.333Z,45.3
2018-10-19T19:04:47.490Z,45.2
2018-10-19T19:09:55.582Z,45.2
2018-10-19T19:15:03.569Z,45
2018-10-19T19:20:11.772Z,46
2018-10-19T19:30:28.071Z,46
2018-10-19T19:35:36.188Z,46.1
2018-10-19T19:45:52.565Z,45.8
2018-10-19T19:56:09.135Z,46.6
2018-10-19T20:01:18.116Z,46.8
2018-10-19T20:11:33.488Z,47.2
2018-10-19T20:16:41.747Z,47.6
2018-10-19T20:21:49.685Z,47.9
2018-10-19T20:26:57.940Z,47.5
2018-10-19T20:32:06.127Z,47.6
2018-10-19T20:37:14.361Z,47.8
2018-10-19T20:42:22.606Z,48.3
2018-10-19T20:47:30.852Z,48
2018-10-19T20:52:39.156Z,48.4
2018-10-19T21:02:55.590Z,48
2018-10-19T21:08:03.840Z,48.8
2018-10-19T21:13:12.187Z,48.4
2018-10-19T21:18:20.444Z,49.7
2018-10-19T21:28:37.001Z,49.8
2018-10-19T21:33:45.223Z,49.6
2018-10-19T21:38:53.567Z,49.6
2018-10-19T21:44:01.883Z,49.9
2018-10-19T21:49:10.152Z,50
2018-10-19T21:54:18.404Z,49.8
2018-10-19T21:59:26.693Z,50.1
2018-10-19T22:04:35.021Z,50.1
2018-10-19T22:09:43.294Z,50.3
2018-10-19T22:14:51.640Z,50.4
2018-10-19T22:19:59.891Z,50.3
2018-10-19T22:25:09.130Z,50.2
2018-10-19T22:30:16.870Z,50.2
2018-10-19T22:40:33.569Z,50.2
2018-10-19T22:45:41.771Z,50.2
2018-10-19T22:55:58.461Z,50.2
2018-10-19T23:01:06.820Z,50.1
2018-10-19T23:11:23.480Z,50.5
2018-10-19T23:16:31.832Z,50.9
2018-10-19T23:21:40.174Z,50.4
2018-10-19T23:26:48.534Z,50.3
2018-10-19T23:31:56.876Z,50.4
2018-10-19T23:37:05.284Z,50.9
2018-10-19T23:42:15.840Z,49.8
2018-10-19T23:47:21.922Z,51.2
2018-10-19T23:52:30.287Z,51.4
